createdAt,value
2022-10-01T00:00:26.342Z,9.366001
2022-10-01T00:01:26.370Z,9.366010
2022-10-01T00:02:26.330Z,9.366003
2022-10-01T00:03:26.289Z,9.365969
2022-10-01T00:04:26.291Z,9.365979
2022-10-01T00:05:26.311Z,9.365981
2022-10-01T00:06:26.269Z,9.365962
2022-10-01T00:07:26.256Z,9.365991
2022-10-01T00:08:26.268Z,9.366019
2022-10-01T00:09:26.232Z,9.366043
2022-10-01T00:10:26.252Z,9.366056
2022-10-01T00:11:26.216Z,9.366002
2022-10-01T00:12:26.258Z,9.365980
2022-10-01T00:13:26.206Z,9.365922
2022-10-01T00:14:26.174Z,9.365992
2022-10-01T00:15:26.190Z,9.365975
2022-10-01T00:16:26.202Z,9.365954
2022-10-01T00:17:26.150Z,9.365974
2022-10-01T00:18:26.142Z,9.365973
2022-10-01T00:19:26.124Z,9.366039
2022-10-01T00:20:27.137Z,9.365970
2022-10-01T00:21:26.133Z,9.365980
2022-10-01T00:22:26.096Z,9.365991
2022-10-01T00:23:26.102Z,9.366039
2022-10-01T00:24:26.085Z,9.366072
2022-10-01T00:25:26.080Z,9.366032
2022-10-01T00:26:26.100Z,9.365827
2022-10-01T00:27:26.026Z,9.365786
2022-10-01T00:28:26.092Z,9.365746
2022-10-01T00:29:26.022Z,9.365783
2022-10-01T00:30:25.993Z,9.365726
2022-10-01T00:31:26.089Z,9.365758
2022-10-01T00:32:26.031Z,9.365950
2022-10-01T00:33:25.953Z,9.365853
2022-10-01T00:34:25.946Z,9.365752
2022-10-01T00:35:25.954Z,9.365771
2022-10-01T00:36:25.921Z,9.365827
2022-10-01T00:37:25.928Z,9.365870
2022-10-01T00:38:25.909Z,9.365951
2022-10-01T00:39:25.902Z,9.365692
2022-10-01T00:40:25.881Z,9.365687
2022-10-01T00:41:25.890Z,9.365909
2022-10-01T00:42:25.894Z,9.365723
2022-10-01T00:43:25.847Z,9.365610
2022-10-01T00:44:25.841Z,9.365508
2022-10-01T00:45:25.827Z,9.364658
2022-10-01T00:46:25.816Z,9.364790
2022-10-01T00:47:25.830Z,9.365531
2022-10-01T00:48:25.789Z,9.365775
2022-10-01T00:49:25.762Z,9.366059
2022-10-01T00:50:25.784Z,9.366203
2022-10-01T00:51:26.744Z,9.366096
2022-10-01T00:52:25.740Z,9.365999
2022-10-01T00:53:25.817Z,9.366091
2022-10-01T00:54:25.722Z,9.366096
2022-10-01T00:55:25.712Z,9.366094
2022-10-01T00:56:25.706Z,9.365954
2022-10-01T00:57:25.687Z,9.365851
2022-10-01T00:58:25.715Z,9.366120
2022-10-01T00:59:25.676Z,9.366185
2022-10-01T01:00:25.657Z,9.366376
2022-10-01T01:01:25.686Z,9.366164
2022-10-01T01:02:25.725Z,9.366118
2022-10-01T01:03:25.608Z,9.366216
2022-10-01T01:04:25.638Z,9.366090
2022-10-01T01:05:25.620Z,9.366298
2022-10-01T01:06:25.578Z,9.366172
2022-10-01T01:07:25.591Z,9.366150
2022-10-01T01:08:25.579Z,9.366001
2022-10-01T01:09:25.592Z,9.365885
2022-10-01T01:10:25.594Z,9.365983
2022-10-01T01:11:25.543Z,9.366156
2022-10-01T01:12:25.524Z,9.365969
2022-10-01T01:13:25.522Z,9.366045
2022-10-01T01:14:25.541Z,9.366107
2022-10-01T01:15:25.507Z,9.365943
2022-10-01T01:16:25.513Z,9.365877
2022-10-01T01:17:25.468Z,9.366011
2022-10-01T01:18:25.458Z,9.366659
2022-10-01T01:19:25.462Z,9.366290
2022-10-01T01:20:25.460Z,9.366004
2022-10-01T01:21:25.429Z,9.366304
2022-10-01T01:22:25.407Z,9.365967
2022-10-01T01:23:25.398Z,9.366104
2022-10-01T01:24:25.391Z,9.366006
2022-10-01T01:25:25.529Z,9.366072
2022-10-01T01:26:25.356Z,9.365959
2022-10-01T01:27:25.707Z,9.365740
2022-10-01T01:28:25.391Z,9.365932
2022-10-01T01:29:25.331Z,9.365918
2022-10-01T01:30:25.363Z,9.365965
2022-10-01T01:31:25.382Z,9.366037
2022-10-01T01:32:25.295Z,9.366080
2022-10-01T01:33:25.292Z,9.366000
2022-10-01T01:34:25.283Z,9.366270
2022-10-01T01:35:25.265Z,9.365841
2022-10-01T01:36:25.586Z,9.366041
2022-10-01T01:37:25.262Z,9.366468
2022-10-01T01:38:25.233Z,9.366105
2022-10-01T01:39:25.238Z,9.366037
2022-10-01T01:40:25.218Z,9.365958
2022-10-01T01:41:25.241Z,9.366176
2022-10-01T01:42:25.231Z,9.366079
2022-10-01T01:43:25.162Z,9.366034
2022-10-01T01:44:26.164Z,9.366073
2022-10-01T01:45:25.145Z,9.365864
2022-10-01T01:46:25.181Z,9.366002
2022-10-01T01:47:25.127Z,9.366573
2022-10-01T01:48:25.106Z,9.366515
2022-10-01T01:49:25.114Z,9.366512
2022-10-01T01:50:25.095Z,9.366372
2022-10-01T01:51:25.073Z,9.365884
2022-10-01T01:52:25.117Z,9.365872
2022-10-01T01:53:25.053Z,9.365949
2022-10-01T01:54:25.042Z,9.365990
2022-10-01T01:55:25.038Z,9.366050
2022-10-01T01:56:26.024Z,9.365967
2022-10-01T01:57:25.044Z,9.366122
2022-10-01T01:58:25.014Z,9.366031
2022-10-01T01:59:25.002Z,9.365980
2022-10-01T02:00:24.985Z,9.365964
2022-10-01T02:01:25.034Z,9.366343
2022-10-01T02:02:25.017Z,9.366014
2022-10-01T02:03:24.953Z,9.366061
2022-10-01T02:04:24.949Z,9.366065
2022-10-01T02:05:24.933Z,9.366084
2022-10-01T02:06:24.944Z,9.366026
2022-10-01T02:07:24.983Z,9.366095
2022-10-01T02:08:24.904Z,9.366055
2022-10-01T02:09:24.894Z,9.365994
2022-10-01T02:10:24.928Z,9.365993
2022-10-01T02:11:24.881Z,9.366014
2022-10-01T02:12:24.875Z,9.365965
2022-10-01T02:13:24.884Z,9.366035
2022-10-01T02:14:24.834Z,9.365984
2022-10-01T02:15:24.820Z,9.365962
2022-10-01T02:16:24.862Z,9.365996
2022-10-01T02:17:24.803Z,9.365994
2022-10-01T02:18:24.816Z,9.366121
2022-10-01T02:19:24.780Z,9.366254
2022-10-01T02:20:24.770Z,9.366521
2022-10-01T02:21:24.743Z,9.366531
2022-10-01T02:22:25.413Z,9.366531
2022-10-01T02:23:24.757Z,9.366450
2022-10-01T02:24:24.716Z,9.366384
2022-10-01T02:25:24.712Z,9.366385
2022-10-01T02:26:24.705Z,9.366437
2022-10-01T02:27:24.686Z,9.366258
2022-10-01T02:28:24.738Z,9.366329
2022-10-01T02:29:24.659Z,9.366228
2022-10-01T02:30:24.635Z,9.366192
2022-10-01T02:31:25.301Z,9.366574
2022-10-01T02:32:24.625Z,9.366663
2022-10-01T02:33:24.649Z,9.366694
2022-10-01T02:34:24.603Z,9.366653
2022-10-01T02:35:24.584Z,9.366658
2022-10-01T02:36:24.583Z,9.366630
2022-10-01T02:37:24.569Z,9.366735
2022-10-01T02:38:24.598Z,9.366825
2022-10-01T02:39:24.550Z,9.366881
2022-10-01T02:40:24.525Z,9.366976
2022-10-01T02:41:24.516Z,9.366852
2022-10-01T02:42:24.516Z,9.366584
2022-10-01T02:43:24.488Z,9.366438
2022-10-01T02:44:24.547Z,9.366672
2022-10-01T02:45:24.488Z,9.366853
2022-10-01T02:46:24.489Z,9.366625
2022-10-01T02:47:24.454Z,9.366912
2022-10-01T02:48:24.453Z,9.367229
2022-10-01T02:49:28.583Z,9.367029
2022-10-01T02:50:24.421Z,9.367085
2022-10-01T02:51:24.413Z,9.367014
2022-10-01T02:52:24.399Z,9.367000
2022-10-01T02:53:24.382Z,9.367000
2022-10-01T02:54:24.386Z,9.366308
2022-10-01T02:55:24.397Z,9.366051
2022-10-01T02:56:24.368Z,9.365520
2022-10-01T02:57:24.372Z,9.366074
2022-10-01T02:58:24.351Z,9.365996
2022-10-01T02:59:24.326Z,9.365971
2022-10-01T03:00:24.382Z,9.366012
2022-10-01T03:01:24.365Z,9.366008
2022-10-01T03:02:24.352Z,9.366045
2022-10-01T03:03:24.298Z,9.366000
2022-10-01T03:04:24.280Z,9.365891
2022-10-01T03:05:24.301Z,9.365802
2022-10-01T03:06:24.255Z,9.365881
2022-10-01T03:07:24.234Z,9.365919
2022-10-01T03:08:24.245Z,9.365910
2022-10-01T03:09:24.226Z,9.365883
2022-10-01T03:10:24.207Z,9.365847
2022-10-01T03:11:24.268Z,9.365883
2022-10-01T03:12:25.197Z,9.365917
2022-10-01T03:13:24.180Z,9.365958
2022-10-01T03:14:24.195Z,9.366010
2022-10-01T03:15:24.156Z,9.366019
2022-10-01T03:16:24.205Z,9.365981
2022-10-01T03:17:24.147Z,9.365932
2022-10-01T03:18:24.122Z,9.365948
2022-10-01T03:19:24.118Z,9.365999
2022-10-01T03:20:24.112Z,9.366059
2022-10-01T03:21:24.084Z,9.366075
2022-10-01T03:22:24.125Z,9.366032
2022-10-01T03:23:24.124Z,9.365881
2022-10-01T03:24:24.076Z,9.365961
2022-10-01T03:25:24.046Z,9.365968
2022-10-01T03:26:24.031Z,9.365933
2022-10-01T03:27:24.097Z,9.366005
2022-10-01T03:28:24.027Z,9.366065
2022-10-01T03:29:24.002Z,9.366084
2022-10-01T03:30:24.010Z,9.366134
2022-10-01T03:31:24.060Z,9.366277
2022-10-01T03:32:24.005Z,9.366294
2022-10-01T03:33:23.994Z,9.366121
2022-10-01T03:34:23.950Z,9.366275
2022-10-01T03:35:23.930Z,9.366483
2022-10-01T03:36:23.938Z,9.366226
2022-10-01T03:37:23.910Z,9.365964
2022-10-01T03:38:24.931Z,9.366020
2022-10-01T03:39:23.898Z,9.366016
2022-10-01T03:40:23.897Z,9.366336
2022-10-01T03:41:23.874Z,9.366363
2022-10-01T03:42:23.864Z,9.366119
2022-10-01T03:43:23.879Z,9.366210
2022-10-01T03:44:23.816Z,9.366152
2022-10-01T03:45:23.858Z,9.366089
2022-10-01T03:46:23.806Z,9.366046
2022-10-01T03:47:23.787Z,9.366129
2022-10-01T03:48:23.809Z,9.366084
2022-10-01T03:49:23.783Z,9.366072
2022-10-01T03:50:23.754Z,9.365761
2022-10-01T03:51:23.746Z,9.365967
2022-10-01T03:52:23.723Z,9.366052
2022-10-01T03:53:24.742Z,9.366020
2022-10-01T03:54:23.700Z,9.366023
2022-10-01T03:55:23.686Z,9.366167
2022-10-01T03:56:23.674Z,9.366055
2022-10-01T03:57:23.682Z,9.365989
2022-10-01T03:58:23.667Z,9.366085
2022-10-01T03:59:23.688Z,9.366029
2022-10-01T04:00:23.641Z,9.365967
2022-10-01T04:01:23.789Z,9.365962
2022-10-01T04:02:23.722Z,9.365971
2022-10-01T04:03:23.607Z,9.366018
2022-10-01T04:04:23.642Z,9.366034
2022-10-01T04:05:23.585Z,9.366083
2022-10-01T04:06:23.575Z,9.365947
2022-10-01T04:07:23.567Z,9.366157
2022-10-01T04:08:24.515Z,9.366142
2022-10-01T04:09:23.539Z,9.366061
2022-10-01T04:10:23.559Z,9.365920
2022-10-01T04:11:23.523Z,9.365949
2022-10-01T04:12:23.506Z,9.366100
2022-10-01T04:13:23.517Z,9.366360
2022-10-01T04:14:23.488Z,9.366052
2022-10-01T04:15:23.517Z,9.365922
2022-10-01T04:16:23.629Z,9.365968
2022-10-01T04:17:23.454Z,9.365937
2022-10-01T04:18:23.442Z,9.366020
2022-10-01T04:19:23.417Z,9.365987
2022-10-01T04:20:23.438Z,9.366101
2022-10-01T04:21:23.491Z,9.365839
2022-10-01T04:22:23.396Z,9.365929
2022-10-01T04:23:23.381Z,9.366073
2022-10-01T04:24:23.384Z,9.366051
2022-10-01T04:25:23.366Z,9.366009
2022-10-01T04:26:23.373Z,9.366019
2022-10-01T04:27:23.354Z,9.366085
2022-10-01T04:28:23.383Z,9.366022
2022-10-01T04:29:23.325Z,9.365986
2022-10-01T04:30:23.319Z,9.366002
2022-10-01T04:31:23.385Z,9.365995
2022-10-01T04:32:23.288Z,9.366086
2022-10-01T04:33:23.728Z,9.366032
2022-10-01T04:34:23.283Z,9.365961
2022-10-01T04:35:23.276Z,9.366027
2022-10-01T04:36:23.248Z,9.365896
2022-10-01T04:37:23.247Z,9.365990
2022-10-01T04:38:23.230Z,9.365857
2022-10-01T04:39:23.231Z,9.365920
2022-10-01T04:40:23.217Z,9.366006
2022-10-01T04:41:23.221Z,9.365995
2022-10-01T04:42:23.200Z,9.365901
2022-10-01T04:43:23.174Z,9.365974
2022-10-01T04:44:23.184Z,9.365947
2022-10-01T04:45:23.149Z,9.366075
2022-10-01T04:46:23.213Z,9.365990
2022-10-01T04:47:23.208Z,9.365916
2022-10-01T04:48:23.121Z,9.366245
2022-10-01T04:49:23.106Z,9.366057
2022-10-01T04:50:23.103Z,9.366085
2022-10-01T04:51:23.083Z,9.365968
2022-10-01T04:52:23.121Z,9.365991
2022-10-01T04:53:23.078Z,9.365912
2022-10-01T04:54:23.056Z,9.365946
2022-10-01T04:55:23.049Z,9.366113
2022-10-01T04:56:23.026Z,9.365993
2022-10-01T04:57:23.042Z,9.365871
2022-10-01T04:58:23.019Z,9.365868
2022-10-01T04:59:23.008Z,9.365871
2022-10-01T05:00:22.975Z,9.365945
2022-10-01T05:01:23.044Z,9.365949
2022-10-01T05:02:22.986Z,9.366015
2022-10-01T05:03:22.981Z,9.365928
2022-10-01T05:04:22.944Z,9.365879
2022-10-01T05:05:22.941Z,9.365900
2022-10-01T05:06:22.907Z,9.365930
2022-10-01T05:07:22.896Z,9.365967
2022-10-01T05:08:22.910Z,9.365944
2022-10-01T05:09:22.870Z,9.365938
2022-10-01T05:10:22.868Z,9.365986
2022-10-01T05:11:22.879Z,9.365978
2022-10-01T05:12:24.628Z,9.365891
2022-10-01T05:13:22.830Z,9.365964
2022-10-01T05:14:22.864Z,9.366003
2022-10-01T05:15:22.808Z,9.366053
2022-10-01T05:16:23.193Z,9.366028
2022-10-01T05:17:22.790Z,9.365949
2022-10-01T05:18:22.781Z,9.366030
2022-10-01T05:19:25.292Z,9.365864
2022-10-01T05:20:22.733Z,9.365859
2022-10-01T05:21:22.723Z,9.365884
2022-10-01T05:22:22.723Z,9.365927
2022-10-01T05:23:23.383Z,9.365926
2022-10-01T05:24:24.086Z,9.365987
2022-10-01T05:25:23.094Z,9.365896
2022-10-01T05:26:22.731Z,9.365873
2022-10-01T05:27:22.703Z,9.365882
2022-10-01T05:28:24.585Z,9.365678
2022-10-01T05:29:22.675Z,9.365876
2022-10-01T05:30:23.511Z,9.365953
2022-10-01T05:31:22.721Z,9.365891
2022-10-01T05:32:22.648Z,9.366076
2022-10-01T05:33:22.632Z,9.366009
2022-10-01T05:34:22.603Z,9.366014
2022-10-01T05:35:22.656Z,9.365944
2022-10-01T05:36:22.574Z,9.365997
2022-10-01T05:37:23.967Z,9.365974
2022-10-01T05:38:22.596Z,9.365923
2022-10-01T05:39:22.574Z,9.365975
2022-10-01T05:40:22.558Z,9.366488
2022-10-01T05:41:22.553Z,9.367041
2022-10-01T05:42:22.539Z,9.366478
2022-10-01T05:43:22.505Z,9.365812
2022-10-01T05:44:22.487Z,9.365869
2022-10-01T05:45:22.500Z,9.366003
2022-10-01T05:46:22.485Z,9.366268
2022-10-01T05:47:22.492Z,9.366208
2022-10-01T05:48:22.479Z,9.366062
2022-10-01T05:49:22.450Z,9.366055
2022-10-01T05:50:22.646Z,9.366046
2022-10-01T05:51:22.492Z,9.365948
2022-10-01T05:52:22.434Z,9.365759
2022-10-01T05:53:22.404Z,9.365785
2022-10-01T05:54:22.411Z,9.365879
2022-10-01T05:55:22.379Z,9.366015
2022-10-01T05:56:22.421Z,9.365935
2022-10-01T05:57:22.360Z,9.366235
2022-10-01T05:58:22.361Z,9.366156
2022-10-01T05:59:22.347Z,9.366727
2022-10-01T06:00:22.321Z,9.366718
2022-10-01T06:01:22.313Z,9.366200
2022-10-01T06:02:22.526Z,9.366076
2022-10-01T06:03:22.353Z,9.366273
2022-10-01T06:04:22.297Z,9.366259
2022-10-01T06:05:22.289Z,9.366363
2022-10-01T06:06:22.261Z,9.365630
2022-10-01T06:07:22.340Z,9.365973
2022-10-01T06:08:22.243Z,9.366141
2022-10-01T06:09:22.216Z,9.365747
2022-10-01T06:10:22.218Z,9.365799
2022-10-01T06:11:22.870Z,9.365982
2022-10-01T06:12:23.215Z,9.365909
2022-10-01T06:13:22.214Z,9.365962
2022-10-01T06:14:22.176Z,9.366002
2022-10-01T06:15:22.165Z,9.366058
2022-10-01T06:16:22.254Z,9.366082
2022-10-01T06:17:22.136Z,9.366063
2022-10-01T06:18:22.154Z,9.365953
2022-10-01T06:19:22.133Z,9.366506
2022-10-01T06:20:22.704Z,9.366073
2022-10-01T06:21:22.106Z,9.366045
2022-10-01T06:22:22.144Z,9.366050
2022-10-01T06:23:22.102Z,9.366069
2022-10-01T06:24:22.303Z,9.365987
2022-10-01T06:25:22.485Z,9.365957
2022-10-01T06:26:22.054Z,9.365973
2022-10-01T06:27:22.050Z,9.365911
2022-10-01T06:28:22.203Z,9.365870
2022-10-01T06:29:22.014Z,9.365972
2022-10-01T06:30:22.015Z,9.365955
2022-10-01T06:31:22.045Z,9.365960
2022-10-01T06:32:21.979Z,9.366036
2022-10-01T06:33:22.006Z,9.365999
2022-10-01T06:34:22.051Z,9.365971
2022-10-01T06:35:21.944Z,9.365913
2022-10-01T06:36:21.933Z,9.365931
2022-10-01T06:37:21.936Z,9.365946
2022-10-01T06:38:21.962Z,9.365942
2022-10-01T06:39:21.932Z,9.365976
2022-10-01T06:40:21.907Z,9.365979
2022-10-01T06:41:21.876Z,9.366053
2022-10-01T06:42:21.881Z,9.366005
2022-10-01T06:43:21.901Z,9.365860
2022-10-01T06:44:21.891Z,9.365949
2022-10-01T06:45:21.848Z,9.365899
2022-10-01T06:46:21.899Z,9.365918
2022-10-01T06:47:21.833Z,9.366045
2022-10-01T06:48:23.032Z,9.365975
2022-10-01T06:49:21.834Z,9.365986
2022-10-01T06:50:21.889Z,9.365999
2022-10-01T06:51:21.782Z,9.366010
2022-10-01T06:52:21.757Z,9.365991
2022-10-01T06:53:21.774Z,9.365944
2022-10-01T06:54:21.771Z,9.366025
2022-10-01T06:55:21.723Z,9.366131
2022-10-01T06:56:21.711Z,9.365962
2022-10-01T06:57:22.716Z,9.365904
2022-10-01T06:58:21.721Z,9.365989
2022-10-01T06:59:21.693Z,9.366135
2022-10-01T07:00:21.661Z,9.366302
2022-10-01T07:01:21.691Z,9.366209
2022-10-01T07:02:21.746Z,9.366185
2022-10-01T07:03:21.650Z,9.365989
2022-10-01T07:04:21.694Z,9.365836
2022-10-01T07:05:21.629Z,9.365895
2022-10-01T07:06:21.637Z,9.365901
2022-10-01T07:07:21.580Z,9.365950
2022-10-01T07:08:21.623Z,9.365921
2022-10-01T07:09:21.603Z,9.365844
2022-10-01T07:10:21.562Z,9.365902
2022-10-01T07:11:21.561Z,9.365998
2022-10-01T07:12:21.529Z,9.365942
2022-10-01T07:13:21.552Z,9.365970
2022-10-01T07:14:21.567Z,9.366019
2022-10-01T07:15:21.492Z,9.366046
2022-10-01T07:16:21.524Z,9.366013
2022-10-01T07:17:21.477Z,9.366010
2022-10-01T07:18:21.491Z,9.365985
2022-10-01T07:19:21.491Z,9.366041
2022-10-01T07:20:21.437Z,9.366058
2022-10-01T07:21:21.437Z,9.365898
2022-10-01T07:22:21.443Z,9.365940
2022-10-01T07:23:21.431Z,9.365986
2022-10-01T07:24:21.416Z,9.366078
2022-10-01T07:25:21.404Z,9.366063
2022-10-01T07:26:21.376Z,9.365996
2022-10-01T07:27:21.376Z,9.366027
2022-10-01T07:28:21.455Z,9.365984
2022-10-01T07:29:21.351Z,9.366060
2022-10-01T07:30:21.369Z,9.365978
2022-10-01T08:44:22.289Z,9.363511
2022-10-01T08:45:22.286Z,9.363796
2022-10-01T08:46:22.255Z,9.363796
2022-10-01T08:47:22.416Z,9.363796
2022-10-01T08:48:22.296Z,9.364215
2022-10-01T08:49:22.223Z,9.364215
2022-10-01T08:50:22.223Z,9.364215
2022-10-01T08:51:22.218Z,9.364215
2022-10-01T08:52:22.193Z,9.364215
2022-10-01T08:53:22.175Z,9.364215
2022-10-01T08:54:22.205Z,9.364215
2022-10-01T08:55:22.153Z,9.364215
2022-10-01T08:56:22.149Z,9.364215
2022-10-01T08:57:22.130Z,9.364215
2022-10-01T08:58:22.119Z,9.364215
2022-10-01T08:59:27.238Z,9.364215
2022-10-01T09:00:22.107Z,9.364215
2022-10-01T09:01:22.159Z,9.364215
2022-10-01T09:02:22.094Z,9.364215
2022-10-01T09:03:22.079Z,9.364215
2022-10-01T09:04:22.123Z,9.364215
2022-10-01T09:05:22.115Z,9.364215
2022-10-01T09:06:22.045Z,9.364215
2022-10-01T09:07:22.029Z,9.364215
2022-10-01T09:08:22.027Z,9.364215
2022-10-01T09:09:22.006Z,9.364215
2022-10-01T09:10:22.024Z,9.364215
2022-10-01T09:11:22.002Z,9.364215
2022-10-01T09:12:21.969Z,9.364215
2022-10-01T09:13:21.959Z,9.365695
2022-10-01T09:14:22.010Z,9.365953
2022-10-01T09:15:21.938Z,9.365961
2022-10-01T09:16:22.050Z,9.365900
2022-10-01T09:17:21.927Z,9.365888
2022-10-01T09:18:21.894Z,9.366101
2022-10-01T09:19:21.908Z,9.366022
2022-10-01T09:20:21.888Z,9.366169
2022-10-01T09:21:21.889Z,9.366034
2022-10-01T09:22:21.862Z,9.365876
2022-10-01T09:23:21.855Z,9.366123
2022-10-01T09:24:21.836Z,9.366297
2022-10-01T09:25:21.827Z,9.366072
2022-10-01T09:26:25.602Z,9.366010
2022-10-01T09:27:21.798Z,9.366117
2022-10-01T09:28:21.854Z,9.365872
2022-10-01T09:29:21.768Z,9.366182
2022-10-01T09:30:21.783Z,9.366085
2022-10-01T09:31:21.792Z,9.366031
2022-10-01T09:32:21.770Z,9.366068
2022-10-01T09:33:21.739Z,9.365951
2022-10-01T09:34:21.734Z,9.366035
2022-10-01T09:35:21.737Z,9.365962
2022-10-01T09:36:21.709Z,9.365946
2022-10-01T09:37:21.722Z,9.365999
2022-10-01T09:38:21.691Z,9.366084
2022-10-01T09:39:21.672Z,9.366148
2022-10-01T09:40:21.664Z,9.366029
2022-10-01T09:41:21.643Z,9.366006
2022-10-01T09:42:21.660Z,9.366051
2022-10-01T09:43:21.626Z,9.366001
2022-10-01T09:44:21.611Z,9.365754
2022-10-01T09:45:21.597Z,9.366155
2022-10-01T09:46:21.627Z,9.366052
2022-10-01T09:47:21.620Z,9.366026
2022-10-01T09:48:21.587Z,9.366021
2022-10-01T09:49:21.582Z,9.365996
2022-10-01T09:50:21.546Z,9.366260
2022-10-01T09:51:21.519Z,9.366049
2022-10-01T09:52:21.595Z,9.365971
2022-10-01T09:53:21.514Z,9.365962
2022-10-01T09:54:21.509Z,9.366226
2022-10-01T09:55:21.509Z,9.366163
2022-10-01T09:56:21.496Z,9.366204
2022-10-01T09:57:21.480Z,9.366080
2022-10-01T09:58:21.499Z,9.366026
2022-10-01T09:59:21.466Z,9.365992
2022-10-01T10:00:21.456Z,9.366053
2022-10-01T10:01:21.438Z,9.366180
2022-10-01T10:02:21.569Z,9.366038
2022-10-01T10:03:21.561Z,9.365970
2022-10-01T10:04:21.402Z,9.365984
2022-10-01T10:05:21.389Z,9.365945
2022-10-01T10:06:21.421Z,9.365994
2022-10-01T10:07:21.364Z,9.365935
2022-10-01T10:08:21.355Z,9.365948
2022-10-01T10:09:21.689Z,9.365969
2022-10-01T10:10:25.438Z,9.365904
2022-10-01T10:11:21.314Z,9.365930
2022-10-01T10:12:21.349Z,9.365952
2022-10-01T10:13:21.303Z,9.365875
2022-10-01T10:14:33.554Z,9.365944
2022-10-01T10:15:22.277Z,9.365966
2022-10-01T10:16:21.344Z,9.366047
2022-10-01T10:17:21.240Z,9.365993
2022-10-01T10:18:23.919Z,9.366146
2022-10-01T10:19:22.208Z,9.366096
2022-10-01T10:20:21.240Z,9.366048
2022-10-01T10:21:21.183Z,9.366111
2022-10-01T10:22:21.178Z,9.366079
2022-10-01T10:23:21.172Z,9.365994
2022-10-01T10:24:21.156Z,9.366064
2022-10-01T10:25:21.181Z,9.366037
2022-10-01T10:26:21.142Z,9.366217
2022-10-01T10:27:21.129Z,9.366196
2022-10-01T10:28:21.172Z,9.366089
2022-10-01T10:29:21.111Z,9.366301
2022-10-01T10:30:21.093Z,9.365969
2022-10-01T10:31:21.162Z,9.366006
2022-10-01T10:32:21.064Z,9.365836
2022-10-01T10:33:21.053Z,9.365832
2022-10-01T10:34:21.039Z,9.366097
2022-10-01T10:35:21.029Z,9.365982
2022-10-01T10:36:21.036Z,9.366014
2022-10-01T10:37:20.997Z,9.365652
2022-10-01T10:38:21.002Z,9.365785
2022-10-01T10:39:21.004Z,9.365980
2022-10-01T10:40:22.756Z,9.366007
2022-10-01T10:41:20.989Z,9.366002
2022-10-01T10:42:20.941Z,9.366081
2022-10-01T10:43:20.938Z,9.365989
2022-10-01T10:44:20.947Z,9.366084
2022-10-01T10:45:20.934Z,9.365943
2022-10-01T10:46:20.962Z,9.365997
2022-10-01T10:47:20.898Z,9.366018
2022-10-01T10:48:20.872Z,9.366036
2022-10-01T10:49:20.866Z,9.366031
2022-10-01T10:50:20.873Z,9.365935
2022-10-01T10:51:20.855Z,9.365851
2022-10-01T10:52:20.832Z,9.366025
2022-10-01T10:53:20.826Z,9.366023
2022-10-01T10:54:20.815Z,9.365982
2022-10-01T10:55:20.800Z,9.365951
2022-10-01T10:56:20.823Z,9.365985
2022-10-01T10:57:20.770Z,9.365980
2022-10-01T10:58:20.763Z,9.366007
2022-10-01T10:59:20.757Z,9.366256
2022-10-01T11:00:20.744Z,9.366094
2022-10-01T11:01:20.775Z,9.366034
2022-10-01T11:02:20.746Z,9.365988
2022-10-01T11:03:20.705Z,9.366020
2022-10-01T11:04:21.373Z,9.366023
2022-10-01T11:05:20.693Z,9.366002
2022-10-01T11:06:20.683Z,9.366000
2022-10-01T11:07:20.653Z,9.365983
2022-10-01T11:08:20.660Z,9.365965
2022-10-01T11:09:20.642Z,9.365986
2022-10-01T11:10:20.614Z,9.365984
2022-10-01T11:11:20.646Z,9.366045
2022-10-01T11:12:20.597Z,9.366028
2022-10-01T11:13:21.195Z,9.366030
2022-10-01T11:14:23.602Z,9.365973
2022-10-01T11:15:21.560Z,9.366013
2022-10-01T11:16:20.633Z,9.365990
2022-10-01T11:17:20.535Z,9.366004
2022-10-01T11:18:20.547Z,9.366028
2022-10-01T11:19:20.540Z,9.366046
2022-10-01T11:20:21.168Z,9.366016
2022-10-01T11:21:20.493Z,9.365993
2022-10-01T11:22:20.532Z,9.366021
2022-10-01T11:23:20.466Z,9.366050
2022-10-01T11:24:20.477Z,9.365980
2022-10-01T11:25:20.443Z,9.365992
2022-10-01T11:26:20.456Z,9.366004
2022-10-01T11:27:20.468Z,9.365992
2022-10-01T11:28:20.482Z,9.365945
2022-10-01T11:29:20.403Z,9.366049
2022-10-01T11:30:20.382Z,9.366060
2022-10-01T13:45:06.283Z,9.365976
2022-10-01T13:46:06.256Z,9.366017
2022-10-01T13:47:06.211Z,9.366074
2022-10-01T13:48:06.236Z,9.366252
2022-10-01T13:49:06.218Z,9.366091
2022-10-01T13:50:06.168Z,9.366192
2022-10-01T13:51:06.211Z,9.366197
2022-10-01T13:52:06.215Z,9.366683
2022-10-01T13:53:06.134Z,9.366422
2022-10-01T13:54:06.175Z,9.366827
2022-10-01T13:55:06.192Z,9.366525
2022-10-01T13:56:06.112Z,9.366275
2022-10-01T13:57:06.092Z,9.365919
2022-10-01T13:58:06.109Z,9.365869
2022-10-01T13:59:06.179Z,9.366294
2022-10-01T14:00:06.122Z,9.366250
2022-10-01T14:01:06.185Z,9.366055
2022-10-01T14:02:06.209Z,9.365866
2022-10-01T14:03:06.207Z,9.365983
2022-10-01T14:04:06.110Z,9.365857
2022-10-01T14:05:06.044Z,9.366161
2022-10-01T14:06:06.027Z,9.365826
2022-10-01T14:07:06.022Z,9.367002
2022-10-01T14:08:09.575Z,9.369536
2022-10-01T14:09:06.030Z,9.366075
2022-10-01T14:10:05.979Z,9.366335
2022-10-01T14:11:05.975Z,9.366356
2022-10-01T14:12:05.994Z,9.365955
2022-10-01T14:13:05.942Z,9.365715
2022-10-01T14:14:05.952Z,9.366169
2022-10-01T14:15:05.917Z,9.366528
2022-10-01T14:16:05.930Z,9.365717
2022-10-01T14:17:05.893Z,9.365891
2022-10-01T14:18:05.876Z,9.365950
2022-10-01T14:19:05.997Z,9.365966
2022-10-01T14:20:05.984Z,9.365996
2022-10-01T14:21:05.884Z,9.365995
2022-10-01T14:22:05.862Z,9.366017
2022-10-01T14:23:05.825Z,9.365976
2022-10-01T14:24:05.866Z,9.365949
2022-10-01T14:25:05.960Z,9.365846
2022-10-01T14:26:05.820Z,9.365849
2022-10-01T14:27:05.826Z,9.365746
2022-10-01T14:28:05.859Z,9.366495
2022-10-01T14:29:05.775Z,9.366019
2022-10-01T14:30:05.753Z,9.365970
2022-10-01T14:31:05.817Z,9.366022
2022-10-01T14:32:05.751Z,9.365902
2022-10-01T14:33:06.005Z,9.366030
2022-10-01T14:34:05.691Z,9.365947
2022-10-01T14:35:05.710Z,9.365965
2022-10-01T14:36:05.744Z,9.365929
2022-10-01T14:37:05.686Z,9.365893
2022-10-01T14:38:05.725Z,9.365986
2022-10-01T14:39:05.633Z,9.365986
2022-10-01T14:40:05.651Z,9.366122
2022-10-01T14:41:05.717Z,9.366022
2022-10-01T14:42:05.650Z,9.365952
2022-10-01T14:43:05.619Z,9.366010
2022-10-01T14:44:06.636Z,9.366052
2022-10-01T14:45:05.656Z,9.366063
2022-10-01T14:46:05.815Z,9.366074
2022-10-01T14:47:05.729Z,9.366039
2022-10-01T14:48:05.552Z,9.366001
2022-10-01T14:49:05.551Z,9.365902
2022-10-01T14:50:05.572Z,9.366052
2022-10-01T14:51:05.513Z,9.366128
2022-10-01T14:52:05.593Z,9.366080
2022-10-01T14:53:05.543Z,9.366054
2022-10-01T14:54:05.505Z,9.366044
2022-10-01T14:55:05.515Z,9.366060
2022-10-01T14:56:05.453Z,9.366004
2022-10-01T14:57:05.492Z,9.366002
2022-10-01T14:58:05.479Z,9.365991
2022-10-01T14:59:05.444Z,9.365990
2022-10-01T15:00:05.447Z,9.366004
2022-10-01T15:01:05.430Z,9.366001
2022-10-01T15:02:05.415Z,9.365949
2022-10-01T15:03:05.461Z,9.366000
2022-10-01T15:04:05.696Z,9.365986
2022-10-01T15:05:05.444Z,9.366057
2022-10-01T15:06:05.490Z,9.366050
2022-10-01T15:07:05.364Z,9.366030
2022-10-01T15:08:06.343Z,9.366077
2022-10-01T15:09:05.400Z,9.366033
2022-10-01T15:10:05.347Z,9.365819
2022-10-01T15:11:05.271Z,9.365939